sensor_id;sensor_type;location;lat;lon;timestamp;pressure;altitude;pressure_sealevel;temperature;humidity
47815;BME280;33579;50.058;18.130;2024-01-30T00:00:12;101088.56;;;2.07;100.00
47815;BME280;33579;50.058;18.130;2024-01-30T00:01:14;101090.25;;;2.08;100.00
47815;BME280;33579;50.058;18.130;2024-01-30T00:02:16;101090.25;;;2.10;100.00
47815;BME280;33579;50.058;18.130;2024-01-30T00:03:19;101091.13;;;2.09;100.00
47815;BME280;33579;50.058;18.130;2024-01-30T00:04:21;101094.56;;;2.09;100.00
47815;BME280;33579;50.058;18.130;2024-01-30T00:05:23;101089.44;;;2.08;100.00
47815;BME280;33579;50.058;18.130;2024-01-30T00:06:25;101089.63;;;1.97;100.00
47815;BME280;33579;50.058;18.130;2024-01-30T00:07:27;101091.63;;;1.84;100.00
47815;BME280;33579;50.058;18.130;2024-01-30T00:08:29;101094.31;;;1.81;100.00
47815;BME280;33579;50.058;18.130;2024-01-30T00:09:31;101095.06;;;1.86;100.00
47815;BME280;33579;50.058;18.130;2024-01-30T00:10:33;101089.88;;;1.86;100.00
47815;BME280;33579;50.058;18.130;2024-01-30T00:11:35;101095.88;;;1.88;100.00
47815;BME280;33579;50.058;18.130;2024-01-30T00:12:37;101097.53;;;1.92;100.00
47815;BME280;33579;50.058;18.130;2024-01-30T00:13:39;101095.72;;;1.96;100.00
47815;BME280;33579;50.058;18.130;2024-01-30T00:14:42;101092.22;;;1.97;100.00
47815;BME280;33579;50.058;18.130;2024-01-30T00:15:44;101097.47;;;1.95;100.00
47815;BME280;33579;50.058;18.130;2024-01-30T00:16:46;101095.22;;;1.78;100.00
47815;BME280;33579;50.058;18.130;2024-01-30T00:17:48;101083.16;;;1.76;100.00
47815;BME280;33579;50.058;18.130;2024-01-30T00:18:53;101089.28;;;1.72;100.00
47815;BME280;33579;50.058;18.130;2024-01-30T00:19:56;101087.66;;;1.67;100.00
47815;BME280;33579;50.058;18.130;2024-01-30T00:20:57;101084.13;;;1.70;100.00
47815;BME280;33579;50.058;18.130;2024-01-30T00:21:59;101084.09;;;1.72;100.00
47815;BME280;33579;50.058;18.130;2024-01-30T00:23:01;101086.69;;;1.73;100.00
47815;BME280;33579;50.058;18.130;2024-01-30T00:24:03;101082.34;;;1.72;100.00
47815;BME280;33579;50.058;18.130;2024-01-30T00:25:05;101073.63;;;1.76;100.00
47815;BME280;33579;50.058;18.130;2024-01-30T00:26:07;101078.03;;;1.73;100.00
47815;BME280;33579;50.058;18.130;2024-01-30T00:27:09;101075.53;;;1.66;100.00
47815;BME280;33579;50.058;18.130;2024-01-30T00:28:11;101076.28;;;1.73;100.00
47815;BME280;33579;50.058;18.130;2024-01-30T00:29:13;101082.34;;;1.72;100.00
47815;BME280;33579;50.058;18.130;2024-01-30T00:30:15;101072.84;;;1.73;100.00
47815;BME280;33579;50.058;18.130;2024-01-30T00:31:17;101077.94;;;1.76;100.00
47815;BME280;33579;50.058;18.130;2024-01-30T00:32:18;101077.94;;;1.76;100.00
47815;BME280;33579;50.058;18.130;2024-01-30T00:33:20;101081.38;;;1.78;100.00
47815;BME280;33579;50.058;18.130;2024-01-30T00:34:22;101079.63;;;1.78;100.00
47815;BME280;33579;50.058;18.130;2024-01-30T00:35:24;101086.56;;;1.78;100.00
47815;BME280;33579;50.058;18.130;2024-01-30T00:36:26;101080.44;;;1.82;100.00
47815;BME280;33579;50.058;18.130;2024-01-30T00:37:28;101083.94;;;1.79;100.00
47815;BME280;33579;50.058;18.130;2024-01-30T00:38:30;101079.63;;;1.80;100.00
47815;BME280;33579;50.058;18.130;2024-01-30T00:39:32;101077.03;;;1.80;100.00
47815;BME280;33579;50.058;18.130;2024-01-30T00:40:34;101079.63;;;1.78;100.00
47815;BME280;33579;50.058;18.130;2024-01-30T00:41:36;101081.38;;;1.78;100.00
47815;BME280;33579;50.058;18.130;2024-01-30T00:42:37;101078.00;;;1.74;100.00
47815;BME280;33579;50.058;18.130;2024-01-30T00:43:40;101078.03;;;1.73;100.00
47815;BME280;33579;50.058;18.130;2024-01-30T00:44:42;101077.22;;;1.69;100.00
47815;BME280;33579;50.058;18.130;2024-01-30T00:45:44;101078.03;;;1.71;100.00
47815;BME280;33579;50.058;18.130;2024-01-30T00:46:45;101078.00;;;1.74;100.00
47815;BME280;33579;50.058;18.130;2024-01-30T00:47:47;101073.66;;;1.75;100.00
47815;BME280;33579;50.058;18.130;2024-01-30T00:48:49;101080.53;;;1.76;100.00
47815;BME280;33579;50.058;18.130;2024-01-30T00:49:51;101077.28;;;1.67;100.00
47815;BME280;33579;50.058;18.130;2024-01-30T00:50:53;101078.94;;;1.70;100.00
47815;BME280;33579;50.058;18.130;2024-01-30T00:51:55;101074.53;;;1.74;100.00
47815;BME280;33579;50.058;18.130;2024-01-30T00:52:57;101074.59;;;1.71;100.00
47815;BME280;33579;50.058;18.130;2024-01-30T00:53:59;101078.03;;;1.71;100.00
47815;BME280;33579;50.058;18.130;2024-01-30T00:55:01;101075.34;;;1.77;100.00
47815;BME280;33579;50.058;18.130;2024-01-30T00:56:03;101073.59;;;1.78;100.00
47815;BME280;33579;50.058;18.130;2024-01-30T00:57:05;101075.28;;;1.79;100.00
47815;BME280;33579;50.058;18.130;2024-01-30T00:58:07;101066.78;;;1.72;100.00
47815;BME280;33579;50.058;18.130;2024-01-30T00:59:11;101078.94;;;1.70;100.00
47815;BME280;33579;50.058;18.130;2024-01-30T01:00:13;101069.41;;;1.71;100.00
47815;BME280;33579;50.058;18.130;2024-01-30T01:01:15;101071.97;;;1.72;100.00
47815;BME280;33579;50.058;18.130;2024-01-30T01:02:17;101068.53;;;1.72;100.00
47815;BME280;33579;50.058;18.130;2024-01-30T01:03:19;101074.44;;;1.78;100.00
47815;BME280;33579;50.058;18.130;2024-01-30T01:04:21;101070.06;;;1.80;100.00
47815;BME280;33579;50.058;18.130;2024-01-30T01:05:23;101076.91;;;1.85;100.00
47815;BME280;33579;50.058;18.130;2024-01-30T01:06:24;101065.78;;;1.78;100.00
47815;BME280;33579;50.058;18.130;2024-01-30T01:07:26;101059.88;;;1.71;100.00
47815;BME280;33579;50.058;18.130;2024-01-30T01:08:28;101066.03;;;1.67;100.00
47815;BME280;33579;50.058;18.130;2024-01-30T01:09:30;101066.09;;;1.62;100.00
47815;BME280;33579;50.058;18.130;2024-01-30T01:10:32;101067.72;;;1.68;100.00
47815;BME280;33579;50.058;18.130;2024-01-30T01:11:34;101064.19;;;1.72;100.00
47815;BME280;33579;50.058;18.130;2024-01-30T01:12:36;101066.75;;;1.74;100.00
47815;BME280;33579;50.058;18.130;2024-01-30T01:13:38;101062.44;;;1.74;100.00
47815;BME280;33579;50.058;18.130;2024-01-30T01:14:41;101075.44;;;1.71;100.00
47815;BME280;33579;50.058;18.130;2024-01-30T01:15:43;101068.63;;;1.67;100.00
47815;BME280;33579;50.058;18.130;2024-01-30T01:16:45;101065.13;;;1.70;100.00
47815;BME280;33579;50.058;18.130;2024-01-30T01:17:47;101065.13;;;1.70;100.00
47815;BME280;33579;50.058;18.130;2024-01-30T01:18:48;101065.13;;;1.68;100.00
47815;BME280;33579;50.058;18.130;2024-01-30T01:19:51;101062.47;;;1.71;100.00
47815;BME280;33579;50.058;18.130;2024-01-30T01:20:52;101063.28;;;1.75;100.00
47815;BME280;33579;50.058;18.130;2024-01-30T01:21:54;101062.44;;;1.74;100.00
47815;BME280;33579;50.058;18.130;2024-01-30T01:22:56;101059.78;;;1.76;100.00
47815;BME280;33579;50.058;18.130;2024-01-30T01:23:59;101056.28;;;1.78;100.00
47815;BME280;33579;50.058;18.130;2024-01-30T01:25:01;101064.13;;;1.75;100.00
47815;BME280;33579;50.058;18.130;2024-01-30T01:26:04;101055.56;;;1.70;100.00
47815;BME280;33579;50.058;18.130;2024-01-30T01:27:06;101059.19;;;1.63;100.00
47815;BME280;33579;50.058;18.130;2024-01-30T01:28:08;101059.22;;;1.61;100.00
47815;BME280;33579;50.058;18.130;2024-01-30T01:29:09;101055.63;;;1.68;100.00
47815;BME280;33579;50.058;18.130;2024-01-30T01:30:11;101060.66;;;1.76;100.00
47815;BME280;33579;50.058;18.130;2024-01-30T01:31:13;101063.97;;;1.83;100.00
47815;BME280;33579;50.058;18.130;2024-01-30T01:32:15;101058.09;;;1.75;100.00
47815;BME280;33579;50.058;18.130;2024-01-30T01:33:17;101061.63;;;1.71;100.00
47815;BME280;33579;50.058;18.130;2024-01-30T01:34:19;101051.25;;;1.71;100.00
47815;BME280;33579;50.058;18.130;2024-01-30T01:35:22;101060.72;;;1.73;100.00
47815;BME280;33579;50.058;18.130;2024-01-30T01:36:24;101059.97;;;1.66;100.00
47815;BME280;33579;50.058;18.130;2024-01-30T01:37:26;101059.88;;;1.71;100.00
47815;BME280;33579;50.058;18.130;2024-01-30T01:38:28;101060.59;;;1.79;100.00
47815;BME280;33579;50.058;18.130;2024-01-30T01:39:30;101063.09;;;1.84;100.00
47815;BME280;33579;50.058;18.130;2024-01-30T01:40:32;101069.91;;;1.90;100.00
47815;BME280;33579;50.058;18.130;2024-01-30T01:41:34;101067.31;;;1.90;100.00
47815;BME280;33579;50.058;18.130;2024-01-30T01:42:36;101063.97;;;1.83;100.00
47815;BME280;33579;50.058;18.130;2024-01-30T01:43:37;101063.28;;;1.75;100.00
47815;BME280;33579;50.058;18.130;2024-01-30T01:44:39;101060.81;;;1.68;100.00
47815;BME280;33579;50.058;18.130;2024-01-30T01:45:41;101054.84;;;1.63;100.00
47815;BME280;33579;50.058;18.130;2024-01-30T01:46:43;101060.09;;;1.60;100.00
47815;BME280;33579;50.058;18.130;2024-01-30T01:47:48;101056.59;;;1.63;100.00
47815;BME280;33579;50.058;18.130;2024-01-30T01:48:52;101054.78;;;1.66;100.00
47815;BME280;33579;50.058;18.130;2024-01-30T01:49:54;101055.53;;;1.73;100.00
47815;BME280;33579;50.058;18.130;2024-01-30T01:50:57;101056.38;;;1.74;100.00
47815;BME280;33579;50.058;18.130;2024-01-30T01:51:59;101050.44;;;1.68;100.00
47815;BME280;33579;50.058;18.130;2024-01-30T01:53:02;101052.97;;;1.70;100.00
47815;BME280;33579;50.058;18.130;2024-01-30T01:54:05;101050.47;;;1.67;100.00
47815;BME280;33579;50.058;18.130;2024-01-30T01:55:07;101049.56;;;1.68;100.00
47815;BME280;33579;50.058;18.130;2024-01-30T01:56:12;101047.00;;;1.66;100.00
47815;BME280;33579;50.058;18.130;2024-01-30T01:57:14;101053.06;;;1.67;100.00
47815;BME280;33579;50.058;18.130;2024-01-30T01:58:16;101047.09;;;1.62;100.00
47815;BME280;33579;50.058;18.130;2024-01-30T01:59:19;101055.81;;;1.58;100.00
47815;BME280;33579;50.058;18.130;2024-01-30T02:00:22;101048.91;;;1.58;100.00
47815;BME280;33579;50.058;18.130;2024-01-30T02:01:25;101041.03;;;1.63;100.00
47815;BME280;33579;50.058;18.130;2024-01-30T02:02:30;101041.88;;;1.63;100.00
47815;BME280;33579;50.058;18.130;2024-01-30T02:03:36;101034.97;;;1.64;100.00
47815;BME280;33579;50.058;18.130;2024-01-30T02:04:38;101044.44;;;1.65;100.00
47815;BME280;33579;50.058;18.130;2024-01-30T02:05:41;101040.06;;;1.67;100.00
47815;BME280;33579;50.058;18.130;2024-01-30T02:06:43;101041.72;;;1.71;100.00
47815;BME280;33579;50.058;18.130;2024-01-30T02:07:45;101036.66;;;1.65;100.00
47815;BME280;33579;50.058;18.130;2024-01-30T02:08:47;101032.31;;;1.65;100.00
47815;BME280;33579;50.058;18.130;2024-01-30T02:09:49;101039.25;;;1.65;100.00
47815;BME280;33579;50.058;18.130;2024-01-30T02:10:51;101036.78;;;1.59;100.00
47815;BME280;33579;50.058;18.130;2024-01-30T02:11:53;101040.16;;;1.62;100.00
47815;BME280;33579;50.058;18.130;2024-01-30T02:12:56;101041.91;;;1.62;100.00
47815;BME280;33579;50.058;18.130;2024-01-30T02:14:02;101041.88;;;1.63;100.00
47815;BME280;33579;50.058;18.130;2024-01-30T02:15:05;101041.06;;;1.61;100.00
47815;BME280;33579;50.058;18.130;2024-01-30T02:16:07;101037.63;;;1.61;100.00
47815;BME280;33579;50.058;18.130;2024-01-30T02:17:09;101047.09;;;1.62;100.00
47815;BME280;33579;50.058;18.130;2024-01-30T02:18:10;101040.09;;;1.65;100.00
47815;BME280;33579;50.058;18.130;2024-01-30T02:19:12;101040.00;;;1.72;100.00
47815;BME280;33579;50.058;18.130;2024-01-30T02:20:15;101039.91;;;1.75;100.00
47815;BME280;33579;50.058;18.130;2024-01-30T02:21:18;101032.19;;;1.73;100.00
47815;BME280;33579;50.058;18.130;2024-01-30T02:22:20;101039.97;;;1.73;100.00
47815;BME280;33579;50.058;18.130;2024-01-30T02:23:24;101038.22;;;1.74;100.00
47815;BME280;33579;50.058;18.130;2024-01-30T02:24:26;101042.50;;;1.75;100.00
47815;BME280;33579;50.058;18.130;2024-01-30T02:25:38;101042.50;;;1.76;100.00
47815;BME280;33579;50.058;18.130;2024-01-30T02:26:40;101043.31;;;1.78;100.00
47815;BME280;33579;50.058;18.130;2024-01-30T02:27:42;101037.22;;;1.79;100.00
47815;BME280;33579;50.058;18.130;2024-01-30T02:28:43;101040.72;;;1.78;100.00
47815;BME280;33579;50.058;18.130;2024-01-30T02:29:45;101042.50;;;1.75;100.00
47815;BME280;33579;50.058;18.130;2024-01-30T02:30:47;101033.88;;;1.74;100.00
47815;BME280;33579;50.058;18.130;2024-01-30T02:31:49;101037.38;;;1.73;100.00
47815;BME280;33579;50.058;18.130;2024-01-30T02:32:51;101034.78;;;1.73;100.00
47815;BME280;33579;50.058;18.130;2024-01-30T02:33:53;101033.03;;;1.72;100.00
47815;BME280;33579;50.058;18.130;2024-01-30T02:34:56;101031.31;;;1.73;100.00
47815;BME280;33579;50.058;18.130;2024-01-30T02:35:58;101033.94;;;1.71;100.00
47815;BME280;33579;50.058;18.130;2024-01-30T02:36:59;101033.16;;;1.67;100.00
47815;BME280;33579;50.058;18.130;2024-01-30T02:38:02;101030.59;;;1.66;100.00
47815;BME280;33579;50.058;18.130;2024-01-30T02:39:03;101033.28;;;1.61;100.00
47815;BME280;33579;50.058;18.130;2024-01-30T02:40:06;101030.69;;;1.61;100.00
47815;BME280;33579;50.058;18.130;2024-01-30T02:41:08;101028.16;;;1.58;100.00
47815;BME280;33579;50.058;18.130;2024-01-30T02:42:10;101034.25;;;1.54;100.00
47815;BME280;33579;50.058;18.130;2024-01-30T02:43:12;101029.97;;;1.53;100.00
47815;BME280;33579;50.058;18.130;2024-01-30T02:44:14;101030.91;;;1.50;100.00
47815;BME280;33579;50.058;18.130;2024-01-30T02:45:16;101033.50;;;1.50;100.00
47815;BME280;33579;50.058;18.130;2024-01-30T02:46:18;101028.25;;;1.53;100.00
47815;BME280;33579;50.058;18.130;2024-01-30T02:47:20;101023.03;;;1.55;100.00
47815;BME280;33579;50.058;18.130;2024-01-30T02:48:22;101021.28;;;1.54;100.00
47815;BME280;33579;50.058;18.130;2024-01-30T02:49:24;101029.16;;;1.51;100.00
47815;BME280;33579;50.058;18.130;2024-01-30T02:50:26;101023.97;;;1.51;100.00
47815;BME280;33579;50.058;18.130;2024-01-30T02:51:27;101028.31;;;1.50;100.00
47815;BME280;33579;50.058;18.130;2024-01-30T02:52:29;101028.34;;;1.47;100.00
47815;BME280;33579;50.058;18.130;2024-01-30T02:53:31;101033.59;;;1.44;100.00
47815;BME280;33579;50.058;18.130;2024-01-30T02:54:33;101026.78;;;1.40;100.00
47815;BME280;33579;50.058;18.130;2024-01-30T02:55:35;101027.66;;;1.39;100.00
47815;BME280;33579;50.058;18.130;2024-01-30T02:56:36;101030.25;;;1.39;100.00
47815;BME280;33579;50.058;18.130;2024-01-30T02:57:39;101025.09;;;1.37;100.00
47815;BME280;33579;50.058;18.130;2024-01-30T02:58:41;101033.75;;;1.36;100.00
47815;BME280;33579;50.058;18.130;2024-01-30T02:59:43;101032.03;;;1.37;100.00
47815;BME280;33579;50.058;18.130;2024-01-30T03:00:45;101031.16;;;1.36;100.00
47815;BME280;33579;50.058;18.130;2024-01-30T03:01:47;101031.16;;;1.36;100.00
47815;BME280;33579;50.058;18.130;2024-01-30T03:02:48;101027.72;;;1.36;100.00
47815;BME280;33579;50.058;18.130;2024-01-30T03:03:50;101029.44;;;1.37;100.00
47815;BME280;33579;50.058;18.130;2024-01-30T03:04:52;101024.19;;;1.38;100.00
47815;BME280;33579;50.058;18.130;2024-01-30T03:05:54;101024.19;;;1.40;100.00
47815;BME280;33579;50.058;18.130;2024-01-30T03:06:56;101025.94;;;1.38;100.00
47815;BME280;33579;50.058;18.130;2024-01-30T03:07:58;101023.41;;;1.35;100.00
47815;BME280;33579;50.058;18.130;2024-01-30T03:09:01;101026.88;;;1.34;100.00
47815;BME280;33579;50.058;18.130;2024-01-30T03:10:06;101026.03;;;1.33;100.00
47815;BME280;33579;50.058;18.130;2024-01-30T03:11:08;101026.06;;;1.32;100.00
47815;BME280;33579;50.058;18.130;2024-01-30T03:12:10;101024.34;;;1.31;100.00
47815;BME280;33579;50.058;18.130;2024-01-30T03:13:12;101023.53;;;1.29;100.00
47815;BME280;33579;50.058;18.130;2024-01-30T03:14:14;101021.88;;;1.24;100.00
47815;BME280;33579;50.058;18.130;2024-01-30T03:15:16;101024.50;;;1.23;100.00
47815;BME280;33579;50.058;18.130;2024-01-30T03:16:18;101020.19;;;1.22;100.00
47815;BME280;33579;50.058;18.130;2024-01-30T03:17:20;101026.34;;;1.18;100.00
47815;BME280;33579;50.058;18.130;2024-01-30T03:18:22;101022.06;;;1.15;100.00
47815;BME280;33579;50.058;18.130;2024-01-30T03:19:24;101023.78;;;1.15;100.00
47815;BME280;33579;50.058;18.130;2024-01-30T03:20:26;101026.28;;;1.19;100.00
47815;BME280;33579;50.058;18.130;2024-01-30T03:21:27;101024.59;;;1.17;100.00
47815;BME280;33579;50.058;18.130;2024-01-30T03:22:29;101016.88;;;1.15;100.00
47815;BME280;33579;50.058;18.130;2024-01-30T03:23:31;101012.56;;;1.14;100.00
47815;BME280;33579;50.058;18.130;2024-01-30T03:24:33;101017.75;;;1.12;100.00
47815;BME280;33579;50.058;18.130;2024-01-30T03:25:35;101015.16;;;1.14;100.00
47815;BME280;33579;50.058;18.130;2024-01-30T03:26:36;101016.88;;;1.15;100.00
47815;BME280;33579;50.058;18.130;2024-01-30T03:27:39;101015.97;;;1.16;100.00
47815;BME280;33579;50.058;18.130;2024-01-30T03:28:40;101009.09;;;1.15;100.00
47815;BME280;33579;50.058;18.130;2024-01-30T03:29:42;101014.28;;;1.15;100.00
47815;BME280;33579;50.058;18.130;2024-01-30T03:30:44;101016.00;;;1.15;100.00
47815;BME280;33579;50.058;18.130;2024-01-30T03:31:46;101012.50;;;1.16;100.00
47815;BME280;33579;50.058;18.130;2024-01-30T03:32:49;101019.41;;;1.17;100.00
47815;BME280;33579;50.058;18.130;2024-01-30T03:33:51;101021.19;;;1.15;100.00
47815;BME280;33579;50.058;18.130;2024-01-30T03:34:53;101016.88;;;1.15;100.00
47815;BME280;33579;50.058;18.130;2024-01-30T03:35:55;101013.41;;;1.15;100.00
47815;BME280;33579;50.058;18.130;2024-01-30T03:36:57;101011.69;;;1.15;100.00
47815;BME280;33579;50.058;18.130;2024-01-30T03:37:59;101015.16;;;1.14;100.00
47815;BME280;33579;50.058;18.130;2024-01-30T03:39:01;101011.75;;;1.12;100.00
47815;BME280;33579;50.058;18.130;2024-01-30T03:40:03;101016.06;;;1.11;100.00
47815;BME280;33579;50.058;18.130;2024-01-30T03:41:10;101013.47;;;1.11;100.00
47815;BME280;33579;50.058;18.130;2024-01-30T03:42:12;101013.44;;;1.13;100.00
47815;BME280;33579;50.058;18.130;2024-01-30T03:43:14;101010.81;;;1.15;100.00
47815;BME280;33579;50.058;18.130;2024-01-30T03:44:16;101012.59;;;1.12;100.00
47815;BME280;33579;50.058;18.130;2024-01-30T03:45:17;101011.75;;;1.12;100.00
47815;BME280;33579;50.058;18.130;2024-01-30T03:46:19;101014.28;;;1.14;100.00
47815;BME280;33579;50.058;18.130;2024-01-30T03:47:21;101009.09;;;1.14;100.00
47815;BME280;33579;50.058;18.130;2024-01-30T03:48:23;101007.38;;;1.14;100.00
47815;BME280;33579;50.058;18.130;2024-01-30T03:49:25;101011.69;;;1.15;100.00
47815;BME280;33579;50.058;18.130;2024-01-30T03:50:27;101019.47;;;1.15;100.00
47815;BME280;33579;50.058;18.130;2024-01-30T03:51:29;101019.47;;;1.15;100.00
47815;BME280;33579;50.058;18.130;2024-01-30T03:52:31;101009.91;;;1.16;100.00
47815;BME280;33579;50.058;18.130;2024-01-30T03:53:34;101012.50;;;1.16;100.00
47815;BME280;33579;50.058;18.130;2024-01-30T03:54:36;101010.81;;;1.15;100.00
47815;BME280;33579;50.058;18.130;2024-01-30T03:55:38;101018.56;;;1.16;100.00
47815;BME280;33579;50.058;18.130;2024-01-30T03:56:40;101013.38;;;1.16;100.00
47815;BME280;33579;50.058;18.130;2024-01-30T03:57:41;101011.63;;;1.17;100.00
47815;BME280;33579;50.058;18.130;2024-01-30T03:58:44;101015.97;;;1.16;100.00
47815;BME280;33579;50.058;18.130;2024-01-30T03:59:46;101009.97;;;1.14;100.00
47815;BME280;33579;50.058;18.130;2024-01-30T04:00:48;101010.88;;;1.10;100.00
47815;BME280;33579;50.058;18.130;2024-01-30T04:01:50;101007.53;;;1.05;100.00
47815;BME280;33579;50.058;18.130;2024-01-30T04:02:52;101004.22;;;0.98;100.00
47815;BME280;33579;50.058;18.130;2024-01-30T04:03:55;101007.69;;;0.95;100.00
47815;BME280;33579;50.058;18.130;2024-01-30T04:04:56;101014.63;;;0.95;100.00
47815;BME280;33579;50.058;18.130;2024-01-30T04:05:59;101012.06;;;0.92;100.00
47815;BME280;33579;50.058;18.130;2024-01-30T04:07:01;101011.25;;;0.91;100.00
47815;BME280;33579;50.058;18.130;2024-01-30T04:08:03;101009.59;;;0.87;100.00
47815;BME280;33579;50.058;18.130;2024-01-30T04:09:05;101006.94;;;0.90;100.00
47815;BME280;33579;50.058;18.130;2024-01-30T04:10:07;101016.44;;;0.90;100.00
47815;BME280;33579;50.058;18.130;2024-01-30T04:11:09;101016.44;;;0.90;100.00
47815;BME280;33579;50.058;18.130;2024-01-30T04:12:11;101012.13;;;0.89;100.00
47815;BME280;33579;50.058;18.130;2024-01-30T04:13:13;101014.78;;;0.86;100.00
47815;BME280;33579;50.058;18.130;2024-01-30T04:14:15;101014.81;;;0.84;100.00
47815;BME280;33579;50.058;18.130;2024-01-30T04:15:17;101021.75;;;0.83;100.00
47815;BME280;33579;50.058;18.130;2024-01-30T04:16:22;101016.63;;;0.80;100.00
47815;BME280;33579;50.058;18.130;2024-01-30T04:17:24;101009.69;;;0.81;100.00
47815;BME280;33579;50.058;18.130;2024-01-30T04:18:27;101006.25;;;0.79;100.00
47815;BME280;33579;50.058;18.130;2024-01-30T04:19:28;101015.75;;;0.80;100.00
47815;BME280;33579;50.058;18.130;2024-01-30T04:20:31;101009.75;;;0.76;100.00
47815;BME280;33579;50.058;18.130;2024-01-30T04:21:33;101009.81;;;0.75;100.00
47815;BME280;33579;50.058;18.130;2024-01-30T04:22:35;101015.91;;;0.70;100.00
47815;BME280;33579;50.058;18.130;2024-01-30T04:23:36;101012.47;;;0.68;100.00
47815;BME280;33579;50.058;18.130;2024-01-30T04:24:38;101011.59;;;0.69;100.00
47815;BME280;33579;50.058;18.130;2024-01-30T04:25:40;101018.53;;;0.67;100.00
47815;BME280;33579;50.058;18.130;2024-01-30T04:26:42;101015.06;;;0.68;100.00
47815;BME280;33579;50.058;18.130;2024-01-30T04:27:44;101021.06;;;0.70;100.00
47815;BME280;33579;50.058;18.130;2024-01-30T04:28:47;101015.91;;;0.70;100.00
47815;BME280;33579;50.058;18.130;2024-01-30T04:29:49;101019.31;;;0.73;100.00
47815;BME280;33579;50.058;18.130;2024-01-30T04:30:51;101012.41;;;0.72;100.00
47815;BME280;33579;50.058;18.130;2024-01-30T04:31:53;101012.41;;;0.72;100.00
47815;BME280;33579;50.058;18.130;2024-01-30T04:32:55;101017.59;;;0.72;100.00
47815;BME280;33579;50.058;18.130;2024-01-30T04:33:57;101011.53;;;0.73;100.00
47815;BME280;33579;50.058;18.130;2024-01-30T04:34:59;101023.66;;;0.70;100.00
47815;BME280;33579;50.058;18.130;2024-01-30T04:36:01;101017.59;;;0.72;100.00
47815;BME280;33579;50.058;18.130;2024-01-30T04:37:03;101021.06;;;0.70;100.00
47815;BME280;33579;50.058;18.130;2024-01-30T04:38:05;101016.72;;;0.73;100.00
47815;BME280;33579;50.058;18.130;2024-01-30T04:39:06;101015.00;;;0.73;100.00
47815;BME280;33579;50.058;18.130;2024-01-30T04:40:09;101025.38;;;0.73;100.00
47815;BME280;33579;50.058;18.130;2024-01-30T04:41:11;101021.03;;;0.74;100.00
47815;BME280;33579;50.058;18.130;2024-01-30T04:42:13;101021.00;;;0.75;100.00
47815;BME280;33579;50.058;18.130;2024-01-30T04:43:15;101027.06;;;0.74;100.00
47815;BME280;33579;50.058;18.130;2024-01-30T04:44:17;101029.66;;;0.74;100.00
47815;BME280;33579;50.058;18.130;2024-01-30T04:45:19;101027.94;;;0.75;100.00
47815;BME280;33579;50.058;18.130;2024-01-30T04:46:20;101029.66;;;0.74;100.00
47815;BME280;33579;50.058;18.130;2024-01-30T04:47:22;101030.56;;;0.72;100.00
47815;BME280;33579;50.058;18.130;2024-01-30T04:48:25;101026.25;;;0.70;100.00
47815;BME280;33579;50.058;18.130;2024-01-30T04:49:28;101028.84;;;0.72;100.00
47815;BME280;33579;50.058;18.130;2024-01-30T04:50:30;101033.13;;;0.73;100.00
47815;BME280;33579;50.058;18.130;2024-01-30T04:51:32;101030.53;;;0.75;100.00
47815;BME280;33579;50.058;18.130;2024-01-30T04:52:34;101033.16;;;0.72;100.00
47815;BME280;33579;50.058;18.130;2024-01-30T04:53:39;101035.75;;;0.72;100.00
47815;BME280;33579;50.058;18.130;2024-01-30T04:54:41;101038.41;;;0.67;100.00
47815;BME280;33579;50.058;18.130;2024-01-30T04:55:43;101032.44;;;0.63;100.00
47815;BME280;33579;50.058;18.130;2024-01-30T04:56:45;101035.25;;;0.48;100.00
47815;BME280;33579;50.058;18.130;2024-01-30T04:57:46;101031.00;;;0.42;100.00
47815;BME280;33579;50.058;18.130;2024-01-30T04:58:48;101031.13;;;0.37;100.00
47815;BME280;33579;50.058;18.130;2024-01-30T04:59:50;101031.94;;;0.39;100.00
47815;BME280;33579;50.058;18.130;2024-01-30T05:00:52;101026.75;;;0.39;100.00
47815;BME280;33579;50.058;18.130;2024-01-30T05:01:54;101033.59;;;0.42;100.00
47815;BME280;33579;50.058;18.130;2024-01-30T05:02:56;101031.88;;;0.43;100.00
47815;BME280;33579;50.058;18.130;2024-01-30T05:03:58;101031.00;;;0.45;100.00
47815;BME280;33579;50.058;18.130;2024-01-30T05:05:01;101028.41;;;0.44;100.00
47815;BME280;33579;50.058;18.130;2024-01-30T05:06:03;101030.94;;;0.47;100.00
47815;BME280;33579;50.058;18.130;2024-01-30T05:07:05;101029.13;;;0.53;100.00
47815;BME280;33579;50.058;18.130;2024-01-30T05:08:07;101032.56;;;0.54;100.00
47815;BME280;33579;50.058;18.130;2024-01-30T05:09:09;101023.97;;;0.52;100.00
47815;BME280;33579;50.058;18.130;2024-01-30T05:10:11;101023.94;;;0.53;100.00
47815;BME280;33579;50.058;18.130;2024-01-30T05:11:13;101030.81;;;0.58;100.00
47815;BME280;33579;50.058;18.130;2024-01-30T05:12:15;101029.88;;;0.60;100.00
47815;BME280;33579;50.058;18.130;2024-01-30T05:13:17;101028.13;;;0.62;100.00
47815;BME280;33579;50.058;18.130;2024-01-30T05:14:19;101033.28;;;0.64;100.00
47815;BME280;33579;50.058;18.130;2024-01-30T05:15:21;101029.78;;;0.66;100.00
47815;BME280;33579;50.058;18.130;2024-01-30T05:16:23;101028.97;;;0.63;100.00
47815;BME280;33579;50.058;18.130;2024-01-30T05:17:25;101034.16;;;0.63;100.00
47815;BME280;33579;50.058;18.130;2024-01-30T05:18:27;101032.44;;;0.62;100.00
47815;BME280;33579;50.058;18.130;2024-01-30T05:19:28;101032.38;;;0.66;100.00
47815;BME280;33579;50.058;18.130;2024-01-30T05:20:31;101029.81;;;0.65;100.00